M/T Filos — 9HQB8 — position and weather

sailwx.info

Track history (hours):
 
Tides and Currents Weather Stations Pressure Air Temp Water Temp Dewpoint Dewpoint Depression Visibility Wind Speed Wind Dir Waves Ship Positions

M/T Filos

Last reported at 2015-Mar-30 00:23 UTC. Time now 2015-Mar-31 08:24 UTC.
Position N 39°24' W 009°58'.

Length 180 m; draft 7.4 m.

Type: Tanker. MMSI: 224561000.

Date/timePositionNaut miles runAvg speedWind from/ knotsBaromVisibWave heightAir tempDewpointWater temp
2015-Mar-30 00:23N 39°24' W 009°58'910.5
2015-Mar-29 23:30N 39°14' W 009°57'1010.3
2015-Mar-29 22:33N 39°05' W 009°57'1010.6
2015-Mar-29 21:33N 38°54' W 009°57'1010.3
2015-Mar-29 20:34N 38°44' W 009°57'10 9.9
2015-Mar-29 19:33N 38°34' W 009°55'1010.1
2015-Mar-29 18:33N 38°24' W 009°52'1010.0
2015-Mar-29 17:33N 38°15' W 009°49'10 9.9
2015-Mar-29 16:33N 38°05' W 009°46'10 9.7
2015-Mar-29 15:33N 37°56' W 009°43'1010.0
2015-Mar-29 14:33N 37°46' W 009°41'1010.0
2015-Mar-29 13:33N 37°36' W 009°38'1010.0
2015-Mar-29 12:31N 37°26' W 009°35'9 9.8
2015-Mar-29 11:33N 37°17' W 009°32'9 9.3
2015-Mar-29 10:33N 37°08' W 009°28'9 9.5
2015-Mar-29 09:33N 36°59' W 009°25'10 9.5
2015-Mar-29 08:31N 36°49' W 009°22'9 9.7
2015-Mar-29 07:33N 36°42' W 009°14'9 9.2
2015-Mar-29 06:33N 36°39' W 009°04'9 9.1
2015-Mar-29 05:33N 36°36' W 008°53'10 9.5
2015-Mar-29 04:33N 36°33' W 008°42'10 9.9
2015-Mar-29 03:33N 36°30' W 008°30'1110.6
2015-Mar-29 02:33N 36°27' W 008°17'1111.0
2015-Mar-29 01:33N 36°25' W 008°04'1111.2
2015-Mar-29 00:33N 36°21' W 007°51'1311.3
2015-Mar-28 23:26N 36°17' W 007°36'2111.2
2015-Mar-28 21:33N 36°12' W 007°11'8410.5
2015-Mar-28 13:32N 35°59' W 005°28'9 8.8
2015-Mar-28 12:34N 36°01' W 005°17'20211.0
2015-Mar-27 18:10N 37°03' W 001°18'710.9
2015-Mar-27 17:33N 37°08' W 001°11'1111.2
2015-Mar-27 16:33N 37°15' W 001°01'1110.8
2015-Mar-27 15:33N 37°22' W 000°51'1211.5
2015-Mar-27 14:33N 37°30' W 000°40'1212.0
2015-Mar-27 13:33N 37°39' W 000°30'1212.3
2015-Mar-27 12:33N 37°49' W 000°21'1211.8
2015-Mar-27 11:33N 37°59' W 000°13'12512.3
2015-Mar-27 01:24N 39°46' E 001°07'1012.2
2015-Mar-27 00:33N 39°55' E 001°14'1211.8
2015-Mar-26 23:33N 40°06' E 001°21'1211.7
2015-Mar-26 22:33N 40°16' E 001°28'1211.5
2015-Mar-26 21:34N 40°26' E 001°35'1111.4
2015-Mar-26 20:33N 40°37' E 001°42'1111.3
2015-Mar-26 19:33N 40°46' E 001°50'1111.0
2015-Mar-26 18:33N 40°56' E 001°56'1111.1
2015-Mar-26 17:33N 41°06' E 002°03'1211.7
2015-Mar-26 16:29N 41°17' E 002°11'1 0.1
2015-Mar-25 20:13N 41°18' E 002°11'5 6.6
2015-Mar-25 19:31N 41°16' E 002°16'10 9.4
2015-Mar-25 18:28N 41°21' E 002°28'1611.4
2015-Mar-25 17:05N 41°26' E 002°48'1011.8
2015-Mar-25 16:14N 41°30' E 003°00'911.8
2015-Mar-25 15:26N 41°38' E 003°08'20 9.8
2015-Mar-25 13:23N 41°52' E 003°27'7 5.4
2015-Mar-25 12:08N 41°51' E 003°37'3 5.0
2015-Mar-25 11:31N 41°51' E 003°41'6 5.3
2015-Mar-25 10:20N 41°51' E 003°49'6 5.3
2015-Mar-25 09:17N 41°54' E 003°56'2011.3
2015-Mar-25 07:30N 42°14' E 003°58'1010.0
2015-Mar-25 06:32N 42°23' E 004°04'33 9.7
2015-Mar-25 03:06N 42°48' E 004°34'2710.8
2015-Mar-25 00:33N 43°09' E 004°58'1110.6
2015-Mar-24 23:33N 43°20' E 004°58'4 4.2
2015-Mar-24 22:33N 43°24' E 004°60'0 0.0
2015-Mar-24 21:33N 43°24' E 004°60'0 0.0
2015-Mar-24 20:33N 43°24' E 004°60'0 0.0
2015-Mar-24 19:33N 43°24' E 004°60'0 0.0
2015-Mar-24 18:33N 43°24' E 004°60'0 0.0
2015-Mar-24 17:33N 43°24' E 004°60'0 0.0
2015-Mar-24 16:33N 43°24' E 004°60'0 0.0
2015-Mar-24 15:33N 43°24' E 004°60'0 0.0
2015-Mar-24 14:33N 43°24' E 004°60'0 0.0
2015-Mar-24 13:33N 43°24' E 004°60'0 0.0
2015-Mar-24 12:33N 43°24' E 004°60'0 0.0
2015-Mar-24 11:33N 43°24' E 004°60'0 0.0
2015-Mar-24 10:33N 43°24' E 004°60'0 0.0
2015-Mar-24 09:33N 43°24' E 004°60'0 0.0
2015-Mar-24 08:33N 43°24' E 004°60'0 0.0
2015-Mar-24 07:33N 43°24' E 004°60'0 0.0
2015-Mar-24 06:33N 43°24' E 004°60'0 0.0
2015-Mar-24 05:33N 43°24' E 004°60'0 0.0
2015-Mar-24 04:33N 43°24' E 004°60'0 0.0
2015-Mar-24 03:33N 43°24' E 004°60'0 0.0
2015-Mar-24 02:33N 43°24' E 004°60'0 0.0
2015-Mar-24 01:33N 43°24' E 004°60'0 0.0
2015-Mar-24 00:33N 43°24' E 004°60'0 0.0
2015-Mar-23 23:33N 43°24' E 004°60'0 0.0
2015-Mar-23 22:33N 43°24' E 004°60'0 0.4
2015-Mar-23 21:33N 43°24' E 004°59'8 8.4
2015-Mar-23 20:33N 43°15' E 005°01'7 7.3
2015-Mar-23 19:33N 43°08' E 004°59'1711.4
2015-Mar-23 18:04N 42°54' E 004°46'1111.1
2015-Mar-23 17:07N 42°45' E 004°39'811.7
2015-Mar-23 16:24N 42°38' E 004°33'1011.2
2015-Mar-23 15:33N 42°30' E 004°26'1110.7
2015-Mar-23 14:32N 42°21' E 004°17'1512.7
2015-Mar-23 13:22N 42°09' E 004°07'8 9.7
2015-Mar-23 12:30N 42°01' E 004°01'1111.2
2015-Mar-23 11:33N 41°54' E 003°50'1311.0
2015-Mar-23 10:21N 41°46' E 003°36'1010.0
2015-Mar-23 09:23N 41°40' E 003°26'1110.2
2015-Mar-23 08:16N 41°33' E 003°14'1210.4
2015-Mar-23 07:06N 41°25' E 003°01'6 9.6
2015-Mar-23 06:30N 41°22' E 002°55'19 9.7
2015-Mar-23 04:33N 41°10' E 002°36'10 9.9
2015-Mar-23 03:33N 41°04' E 002°26'1110.8
2015-Mar-23 02:32N 40°57' E 002°14'1010.6
2015-Mar-23 01:33N 40°50' E 002°04'1010.2
2015-Mar-23 00:33N 40°44' E 001°53'1010.0
2015-Mar-22 23:33N 40°38' E 001°43'9 9.3
2015-Mar-22 22:33N 40°32' E 001°33'9 9.4
2015-Mar-22 21:33N 40°27' E 001°22'10 9.7
2015-Mar-22 20:33N 40°23' E 001°11'10 9.8
2015-Mar-22 19:33N 40°18' E 000°60'1110.0
2015-Mar-22 18:28N 40°13' E 000°47'151 3.4
2015-Mar-20 22:24N 37°51' W 000°16'8 9.2
2015-Mar-20 21:33N 37°44' W 000°21'9 8.9
2015-Mar-20 20:33N 37°37' W 000°28'8 8.1
2015-Mar-20 19:33N 37°31' W 000°34'7 7.3
2015-Mar-20 18:33N 37°26' W 000°42'7 7.1
2015-Mar-20 17:33N 37°21' W 000°48'6 6.4
2015-Mar-20 16:33N 37°17' W 000°54'7 6.7
2015-Mar-20 15:27N 37°12' W 001°01'  
Track history (hours):
 
Tides and Currents Weather Stations Pressure Air Temp Water Temp Dewpoint Dewpoint Depression Visibility Wind Speed Wind Dir Waves Ship Positions

M/T Filos

Last reported at 2015-Mar-30 00:23 UTC. Time now 2015-Mar-31 08:24 UTC.
Position N 39°24' W 009°58'.

Length 180 m; draft 7.4 m.

Type: Tanker. MMSI: 224561000.

Date/timePositionNaut miles runAvg speedWind from/ knotsBaromVisibWave heightAir tempDewpointWater temp
2015-Mar-30 00:23N 39°24' W 009°58'910.5
2015-Mar-29 23:30N 39°14' W 009°57'1010.3
2015-Mar-29 22:33N 39°05' W 009°57'1010.6
2015-Mar-29 21:33N 38°54' W 009°57'1010.3
2015-Mar-29 20:34N 38°44' W 009°57'10 9.9
2015-Mar-29 19:33N 38°34' W 009°55'1010.1
2015-Mar-29 18:33N 38°24' W 009°52'1010.0
2015-Mar-29 17:33N 38°15' W 009°49'10 9.9
2015-Mar-29 16:33N 38°05' W 009°46'10 9.7
2015-Mar-29 15:33N 37°56' W 009°43'1010.0
2015-Mar-29 14:33N 37°46' W 009°41'1010.0
2015-Mar-29 13:33N 37°36' W 009°38'1010.0
2015-Mar-29 12:31N 37°26' W 009°35'9 9.8
2015-Mar-29 11:33N 37°17' W 009°32'9 9.3
2015-Mar-29 10:33N 37°08' W 009°28'9 9.5
2015-Mar-29 09:33N 36°59' W 009°25'10 9.5
2015-Mar-29 08:31N 36°49' W 009°22'9 9.7
2015-Mar-29 07:33N 36°42' W 009°14'9 9.2
2015-Mar-29 06:33N 36°39' W 009°04'9 9.1
2015-Mar-29 05:33N 36°36' W 008°53'10 9.5
2015-Mar-29 04:33N 36°33' W 008°42'10 9.9
2015-Mar-29 03:33N 36°30' W 008°30'1110.6
2015-Mar-29 02:33N 36°27' W 008°17'1111.0
2015-Mar-29 01:33N 36°25' W 008°04'1111.2
2015-Mar-29 00:33N 36°21' W 007°51'1311.3
2015-Mar-28 23:26N 36°17' W 007°36'2111.2
2015-Mar-28 21:33N 36°12' W 007°11'8410.5
2015-Mar-28 13:32N 35°59' W 005°28'9 8.8
2015-Mar-28 12:34N 36°01' W 005°17'20211.0
2015-Mar-27 18:10N 37°03' W 001°18'710.9
2015-Mar-27 17:33N 37°08' W 001°11'1111.2
2015-Mar-27 16:33N 37°15' W 001°01'1110.8
2015-Mar-27 15:33N 37°22' W 000°51'1211.5
2015-Mar-27 14:33N 37°30' W 000°40'1212.0
2015-Mar-27 13:33N 37°39' W 000°30'1212.3
2015-Mar-27 12:33N 37°49' W 000°21'1211.8
2015-Mar-27 11:33N 37°59' W 000°13'12512.3
2015-Mar-27 01:24N 39°46' E 001°07'1012.2
2015-Mar-27 00:33N 39°55' E 001°14'1211.8
2015-Mar-26 23:33N 40°06' E 001°21'1211.7
2015-Mar-26 22:33N 40°16' E 001°28'1211.5
2015-Mar-26 21:34N 40°26' E 001°35'1111.4
2015-Mar-26 20:33N 40°37' E 001°42'1111.3
2015-Mar-26 19:33N 40°46' E 001°50'1111.0
2015-Mar-26 18:33N 40°56' E 001°56'1111.1
2015-Mar-26 17:33N 41°06' E 002°03'1211.7
2015-Mar-26 16:29N 41°17' E 002°11'1 0.1
2015-Mar-25 20:13N 41°18' E 002°11'5 6.6
2015-Mar-25 19:31N 41°16' E 002°16'10 9.4
2015-Mar-25 18:28N 41°21' E 002°28'1611.4
2015-Mar-25 17:05N 41°26' E 002°48'1011.8
2015-Mar-25 16:14N 41°30' E 003°00'911.8
2015-Mar-25 15:26N 41°38' E 003°08'20 9.8
2015-Mar-25 13:23N 41°52' E 003°27'7 5.4
2015-Mar-25 12:08N 41°51' E 003°37'3 5.0
2015-Mar-25 11:31N 41°51' E 003°41'6 5.3
2015-Mar-25 10:20N 41°51' E 003°49'6 5.3
2015-Mar-25 09:17N 41°54' E 003°56'2011.3
2015-Mar-25 07:30N 42°14' E 003°58'1010.0
2015-Mar-25 06:32N 42°23' E 004°04'33 9.7
2015-Mar-25 03:06N 42°48' E 004°34'2710.8
2015-Mar-25 00:33N 43°09' E 004°58'1110.6
2015-Mar-24 23:33N 43°20' E 004°58'4 4.2
2015-Mar-24 22:33N 43°24' E 004°60'0 0.0
2015-Mar-24 21:33N 43°24' E 004°60'0 0.0
2015-Mar-24 20:33N 43°24' E 004°60'0 0.0
2015-Mar-24 19:33N 43°24' E 004°60'0 0.0
2015-Mar-24 18:33N 43°24' E 004°60'0 0.0
2015-Mar-24 17:33N 43°24' E 004°60'0 0.0
2015-Mar-24 16:33N 43°24' E 004°60'0 0.0
2015-Mar-24 15:33N 43°24' E 004°60'0 0.0
2015-Mar-24 14:33N 43°24' E 004°60'0 0.0
2015-Mar-24 13:33N 43°24' E 004°60'0 0.0
2015-Mar-24 12:33N 43°24' E 004°60'0 0.0
2015-Mar-24 11:33N 43°24' E 004°60'0 0.0
2015-Mar-24 10:33N 43°24' E 004°60'0 0.0
2015-Mar-24 09:33N 43°24' E 004°60'0 0.0
2015-Mar-24 08:33N 43°24' E 004°60'0 0.0
2015-Mar-24 07:33N 43°24' E 004°60'0 0.0
2015-Mar-24 06:33N 43°24' E 004°60'0 0.0
2015-Mar-24 05:33N 43°24' E 004°60'0 0.0
2015-Mar-24 04:33N 43°24' E 004°60'0 0.0
2015-Mar-24 03:33N 43°24' E 004°60'0 0.0
2015-Mar-24 02:33N 43°24' E 004°60'0 0.0
2015-Mar-24 01:33N 43°24' E 004°60'0 0.0
2015-Mar-24 00:33N 43°24' E 004°60'0 0.0
2015-Mar-23 23:33N 43°24' E 004°60'0 0.0
2015-Mar-23 22:33N 43°24' E 004°60'0 0.4
2015-Mar-23 21:33N 43°24' E 004°59'8 8.4
2015-Mar-23 20:33N 43°15' E 005°01'7 7.3
2015-Mar-23 19:33N 43°08' E 004°59'1711.4
2015-Mar-23 18:04N 42°54' E 004°46'1111.1
2015-Mar-23 17:07N 42°45' E 004°39'811.7
2015-Mar-23 16:24N 42°38' E 004°33'1011.2
2015-Mar-23 15:33N 42°30' E 004°26'1110.7
2015-Mar-23 14:32N 42°21' E 004°17'1512.7
2015-Mar-23 13:22N 42°09' E 004°07'8 9.7
2015-Mar-23 12:30N 42°01' E 004°01'1111.2
2015-Mar-23 11:33N 41°54' E 003°50'1311.0
2015-Mar-23 10:21N 41°46' E 003°36'1010.0
2015-Mar-23 09:23N 41°40' E 003°26'1110.2
2015-Mar-23 08:16N 41°33' E 003°14'1210.4
2015-Mar-23 07:06N 41°25' E 003°01'6 9.6
2015-Mar-23 06:30N 41°22' E 002°55'19 9.7
2015-Mar-23 04:33N 41°10' E 002°36'10 9.9
2015-Mar-23 03:33N 41°04' E 002°26'1110.8
2015-Mar-23 02:32N 40°57' E 002°14'1010.6
2015-Mar-23 01:33N 40°50' E 002°04'1010.2
2015-Mar-23 00:33N 40°44' E 001°53'1010.0
2015-Mar-22 23:33N 40°38' E 001°43'9 9.3
2015-Mar-22 22:33N 40°32' E 001°33'9 9.4
2015-Mar-22 21:33N 40°27' E 001°22'10 9.7
2015-Mar-22 20:33N 40°23' E 001°11'10 9.8
2015-Mar-22 19:33N 40°18' E 000°60'1110.0
2015-Mar-22 18:28N 40°13' E 000°47'151 3.4
2015-Mar-20 22:24N 37°51' W 000°16'8 9.2
2015-Mar-20 21:33N 37°44' W 000°21'9 8.9
2015-Mar-20 20:33N 37°37' W 000°28'8 8.1
2015-Mar-20 19:33N 37°31' W 000°34'7 7.3
2015-Mar-20 18:33N 37°26' W 000°42'7 7.1
2015-Mar-20 17:33N 37°21' W 000°48'6 6.4
2015-Mar-20 16:33N 37°17' W 000°54'7 6.7
2015-Mar-20 15:27N 37°12' W 001°01'  

Dump ship's entire track history